Time;durP1;ratioP1;P1;durP2;ratioP2;P2;SDS_P1;SDS_P2;PMS_P1;PMS_P2;Temp;Humidity;BMP_temperature;BMP_pressure;BME280_temperature;BME280_humidity;BME280_pressure;Samples;Min_cycle;Max_cycle;Signal;HPM_P1;HPM_P2
2021/01/14 00:00:44;;;;;;;;;;;;;;;20.20;36.06;100167.66;5037821;28;1914;-54
2021/01/14 00:03:10;;;;;;;;;;;;;;;19.66;37.26;100168.31;5037519;28;831;-53
2021/01/14 00:05:35;;;;;;;;;;;;;;;20.09;36.51;100165.16;5050286;28;834;-54
2021/01/14 00:08:01;;;;;;;;;;;;;;;20.73;35.18;100166.91;5045875;28;1002;-52
2021/01/14 00:10:26;;;;;;;;;;;;;;;20.34;35.94;100160.13;5037213;28;775;-55
2021/01/14 00:12:52;;;;;;;;;;;;;;;20.35;35.90;100161.78;5037429;28;747;-57
2021/01/14 00:15:17;;;;;;;;;;;;;;;19.95;36.38;100161.63;5037705;28;799;-55
2021/01/14 00:17:43;;;;;;;;;;;;;;;19.72;37.12;100167.06;5045082;28;1096;-55
2021/01/14 00:20:10;;;;;;;;;;;;;;;20.62;35.48;100165.50;5057269;28;1977;-55
2021/01/14 00:22:35;;;;;;;;;;;;;;;20.47;35.30;100170.31;5048777;28;1206;-51
2021/01/14 00:25:01;;;;;;;;;;;;;;;20.29;36.09;100171.31;5019869;28;846;-54
2021/01/14 00:27:26;;;;;;;;;;;;;;;19.76;36.93;100170.03;5036502;28;547;-52
2021/01/14 00:29:51;;;;;;;;;;;;;;;19.33;38.00;100176.72;5037165;28;840;-54
2021/01/14 00:32:17;;;;;;;;;;;;;;;19.79;37.13;100177.69;5036859;28;844;-55
2021/01/14 00:34:42;;;;;;;;;;;;;;;20.63;35.28;100179.00;5037118;28;816;-57
2021/01/14 00:39:53;;;;;;;;;;;;;;;20.16;36.30;100176.59;5036772;28;1906;-56
2021/01/14 00:42:18;;;;;;;;;;;;;;;19.59;37.44;100162.41;5037015;28;828;-57
2021/01/14 00:44:44;;;;;;;;;;;;;;;19.63;37.17;100157.91;5036767;28;768;-56
2021/01/14 00:47:09;;;;;;;;;;;;;;;20.56;35.53;100155.75;5037166;28;780;-57
2021/01/14 00:49:34;;;;;;;;;;;;;;;20.51;35.52;100149.22;5036896;28;777;-57
2021/01/14 00:52:00;;;;;;;;;;;;;;;20.26;36.06;100141.56;5036882;28;963;-56
2021/01/14 00:54:25;;;;;;;;;;;;;;;19.95;36.33;100145.91;5036436;28;856;-57
2021/01/14 00:56:51;;;;;;;;;;;;;;;19.28;37.81;100144.56;5036776;28;744;-58
2021/01/14 00:59:16;;;;;;;;;;;;;;;20.03;36.47;100149.84;5036544;28;1902;-57
2021/01/14 01:01:42;;;;;;;;;;;;;;;20.70;35.36;100155.69;5036235;28;851;-56
2021/01/14 01:04:08;;;;;;;;;;;;;;;20.45;35.64;100155.97;5036961;28;784;-56
2021/01/14 01:06:34;;;;;;;;;;;;;;;20.38;35.78;100155.63;5036538;28;772;-55
2021/01/14 01:09:00;;;;;;;;;;;;;;;19.98;36.62;100152.72;5040797;28;979;-57
2021/01/14 01:11:26;;;;;;;;;;;;;;;19.54;37.58;100154.22;5056509;28;771;-56
2021/01/14 01:13:51;;;;;;;;;;;;;;;19.67;37.15;100154.22;5056359;28;808;-56
2021/01/14 01:16:17;;;;;;;;;;;;;;;20.50;35.52;100157.81;5056318;28;885;-56
2021/01/14 01:18:42;;;;;;;;;;;;;;;20.66;35.35;100150.78;5056135;28;1135;-57
2021/01/14 01:21:07;;;;;;;;;;;;;;;20.21;35.99;100144.47;5056212;28;1910;-57
2021/01/14 01:23:33;;;;;;;;;;;;;;;20.02;36.29;100141.88;5039389;28;970;-54
2021/01/14 01:25:58;;;;;;;;;;;;;;;19.37;37.88;100125.34;5036280;28;832;-56
2021/01/14 01:28:26;;;;;;;;;;;;;;;20.00;36.76;100120.91;5036287;28;526;-54
2021/01/14 01:30:52;;;;;;;;;;;;;;;20.67;35.47;100130.31;5035863;28;779;-57
2021/01/14 01:33:17;;;;;;;;;;;;;;;20.79;34.96;100126.13;5036177;28;863;-57
2021/01/14 01:35:42;;;;;;;;;;;;;;;20.39;35.85;100118.59;5036239;28;811;-53
2021/01/14 01:38:08;;;;;;;;;;;;;;;20.14;36.02;100112.56;5035835;28;940;-56
2021/01/14 01:40:33;;;;;;;;;;;;;;;19.51;37.35;100113.50;5035390;28;1979;-57
2021/01/14 01:42:59;;;;;;;;;;;;;;;19.30;38.09;100113.94;5036467;28;823;-56
2021/01/14 01:45:24;;;;;;;;;;;;;;;20.33;35.92;100111.59;5036067;28;788;-54
2021/01/14 01:47:50;;;;;;;;;;;;;;;20.66;35.21;100112.09;5035725;28;840;-54
2021/01/14 01:50:15;;;;;;;;;;;;;;;20.37;35.87;100123.63;5034779;28;860;-50
2021/01/14 01:52:41;;;;;;;;;;;;;;;20.15;36.07;100118.94;5029094;28;1009;-56
2021/01/14 01:55:06;;;;;;;;;;;;;;;19.42;37.73;100130.75;5035705;28;839;-51
2021/01/14 01:57:32;;;;;;;;;;;;;;;19.74;37.15;100128.13;5018326;28;818;-53
2021/01/14 01:59:57;;;;;;;;;;;;;;;20.62;35.47;100127.69;5035912;28;1902;-51
2021/01/14 02:02:24;;;;;;;;;;;;;;;20.65;35.34;100132.56;5035538;28;915;-50
2021/01/14 02:04:49;;;;;;;;;;;;;;;20.34;35.91;100124.25;5035933;28;767;-53
2021/01/14 02:07:35;;;;;;;;;;;;;;;19.95;36.41;100123.81;5043207;28;1049;-55
2021/01/14 02:10:01;;;;;;;;;;;;;;;19.26;38.07;100121.19;5024735;28;1818;-55
2021/01/14 02:12:31;;;;;;;;;;;;;;;20.10;36.52;100122.59;5039856;28;1072;-57
2021/01/14 02:14:57;;;;;;;;;;;;;;;20.74;34.92;100124.34;5053707;28;1171;-51
2021/01/14 02:17:24;;;;;;;;;;;;;;;21.25;34.23;100116.56;5051306;28;904;-49
2021/01/14 02:19:49;;;;;;;;;;;;;;;20.76;34.69;100124.84;5038119;28;1981;-50
2021/01/14 02:22:20;;;;;;;;;;;;;;;20.60;35.49;100143.75;5038132;28;985;-49
2021/01/14 02:25:04;;;;;;;;;;;;;;;20.02;36.46;100142.72;5055351;28;747;-50
2021/01/14 02:27:29;;;;;;;;;;;;;;;19.25;37.83;100141.59;5055770;28;828;-47
2021/01/14 02:29:55;;;;;;;;;;;;;;;19.68;36.96;100138.47;5037980;28;756;-47
2021/01/14 02:32:21;;;;;;;;;;;;;;;20.54;35.52;100149.69;5037905;28;772;-53
2021/01/14 02:34:48;;;;;;;;;;;;;;;20.40;35.54;100147.00;5055588;28;744;-48
2021/01/14 02:37:14;;;;;;;;;;;;;;;20.12;36.03;100139.69;5050128;28;1054;-49
2021/01/14 02:39:39;;;;;;;;;;;;;;;19.76;37.04;100134.97;5035224;28;1914;-47
2021/01/14 02:42:06;;;;;;;;;;;;;;;19.18;37.93;100143.94;5047163;28;883;-49
2021/01/14 02:44:31;;;;;;;;;;;;;;;20.21;36.25;100141.69;5055503;28;847;-54
2021/01/14 02:46:57;;;;;;;;;;;;;;;20.68;35.30;100151.28;5054258;28;812;-51
2021/01/14 02:49:22;;;;;;;;;;;;;;;20.28;35.85;100145.63;5055292;28;779;-47
2021/01/14 02:51:49;;;;;;;;;;;;;;;20.09;36.38;100139.50;5056008;28;958;-48
2021/01/14 02:54:15;;;;;;;;;;;;;;;19.43;37.75;100137.91;5056030;28;1049;-48
2021/01/14 02:56:40;;;;;;;;;;;;;;;19.74;37.01;100148.28;5058946;28;740;-50
2021/01/14 02:59:05;;;;;;;;;;;;;;;20.48;35.41;100132.44;5059394;28;728;-50
2021/01/14 03:01:31;;;;;;;;;;;;;;;20.49;35.48;100132.13;5058364;28;1914;-48
2021/01/14 03:03:57;;;;;;;;;;;;;;;20.22;36.10;100129.53;5059140;28;882;-49
2021/01/14 03:06:25;;;;;;;;;;;;;;;19.73;36.89;100132.84;5058741;28;799;-47
2021/01/14 03:08:50;;;;;;;;;;;;;;;19.19;38.04;100138.13;5040025;28;1017;-51
2021/01/14 03:11:16;;;;;;;;;;;;;;;20.29;36.11;100140.94;5038783;28;799;-47
2021/01/14 03:13:42;;;;;;;;;;;;;;;20.68;35.17;100144.97;5039035;28;760;-48
2021/01/14 03:16:07;;;;;;;;;;;;;;;20.24;35.97;100139.13;5038349;28;827;-47
2021/01/14 03:18:33;;;;;;;;;;;;;;;20.07;36.10;100145.31;5053215;28;1096;-46
2021/01/14 03:20:58;;;;;;;;;;;;;;;19.54;37.25;100143.19;5058448;28;1926;-46
2021/01/14 03:23:24;;;;;;;;;;;;;;;20.02;36.74;100139.94;5043107;28;1124;-52
2021/01/14 03:25:49;;;;;;;;;;;;;;;20.65;35.35;100137.25;5038546;28;807;-47
2021/01/14 03:28:15;;;;;;;;;;;;;;;20.37;35.68;100131.91;5038233;28;862;-53
2021/01/14 03:30:40;;;;;;;;;;;;;;;20.29;35.89;100129.91;5038337;28;738;-50
2021/01/14 03:33:05;;;;;;;;;;;;;;;19.87;36.96;100126.50;5038681;28;803;-46
2021/01/14 03:35:31;;;;;;;;;;;;;;;19.22;38.20;100132.00;5038306;28;863;-52
2021/01/14 03:37:56;;;;;;;;;;;;;;;20.19;36.15;100133.75;5037843;28;944;-52
2021/01/14 03:40:22;;;;;;;;;;;;;;;20.78;34.89;100124.53;5038153;28;1972;-46
2021/01/14 03:42:47;;;;;;;;;;;;;;;20.17;36.23;100127.69;5038128;28;756;-52
2021/01/14 03:45:12;;;;;;;;;;;;;;;20.16;36.13;100124.13;5037914;28;904;-48
2021/01/14 03:47:38;;;;;;;;;;;;;;;19.56;37.23;100116.94;5038078;28;759;-48
2021/01/14 03:50:04;;;;;;;;;;;;;;;19.56;37.53;100122.47;5043295;28;884;-52
2021/01/14 03:52:30;;;;;;;;;;;;;;;20.49;35.59;100123.84;5049861;28;954;-47
2021/01/14 03:54:55;;;;;;;;;;;;;;;20.51;35.34;100132.66;5037978;28;783;-47
2021/01/14 03:57:20;;;;;;;;;;;;;;;20.34;35.94;100127.00;5038024;28;780;-55
2021/01/14 03:59:46;;;;;;;;;;;;;;;20.13;36.13;100126.69;5037405;28;1971;-48
2021/01/14 04:02:11;;;;;;;;;;;;;;;19.26;38.07;100135.75;5036619;28;784;-50
2021/01/14 04:04:37;;;;;;;;;;;;;;;19.48;37.57;100137.78;5038180;28;863;-51
2021/01/14 04:07:07;;;;;;;;;;;;;;;20.42;35.74;100128.19;5037206;28;971;-49
2021/01/14 04:09:32;;;;;;;;;;;;;;;20.72;35.02;100132.16;5037989;28;712;-49
2021/01/14 04:11:58;;;;;;;;;;;;;;;20.16;36.27;100132.41;5037577;28;787;-49
2021/01/14 04:14:23;;;;;;;;;;;;;;;20.06;36.27;100132.66;5037461;28;744;-51
2021/01/14 04:16:49;;;;;;;;;;;;;;;19.60;37.22;100137.28;5038231;28;1080;-48
2021/01/14 04:19:15;;;;;;;;;;;;;;;20.08;36.40;100138.69;5057562;28;751;-58
2021/01/14 04:21:40;;;;;;;;;;;;;;;20.80;35.12;100127.78;5055434;28;1981;-56
2021/01/14 04:24:06;;;;;;;;;;;;;;;20.18;36.34;100126.56;5037248;28;1037;-55
2021/01/14 04:26:31;;;;;;;;;;;;;;;20.11;36.25;100123.44;5037947;28;791;-53
2021/01/14 04:28:57;;;;;;;;;;;;;;;19.47;37.37;100122.38;5037303;28;790;-51
2021/01/14 04:31:22;;;;;;;;;;;;;;;19.66;37.32;100119.47;5037321;28;765;-50
2021/01/14 04:33:48;;;;;;;;;;;;;;;20.49;35.73;100131.31;5037314;28;828;-54
2021/01/14 04:36:14;;;;;;;;;;;;;;;20.33;35.75;100130.91;5036820;28;949;-50
2021/01/14 04:38:40;;;;;;;;;;;;;;;20.34;35.67;100132.53;5036913;28;1010;-55
2021/01/14 04:41:05;;;;;;;;;;;;;;;19.91;36.41;100141.28;5037223;28;1973;-52
2021/01/14 04:43:31;;;;;;;;;;;;;;;19.46;37.53;100133.69;5037328;28;814;-48
2021/01/14 04:46:04;;;;;;;;;;;;;;;20.42;35.89;100136.47;5036996;28;764;-52
2021/01/14 04:48:36;;;;;;;;;;;;;;;20.69;35.12;100138.28;5036968;28;806;-49
2021/01/14 04:51:08;;;;;;;;;;;;;;;20.27;35.88;100135.75;5036732;28;740;-49
2021/01/14 04:53:34;;;;;;;;;;;;;;;20.00;36.43;100139.44;5053065;28;1014;-51
2021/01/14 04:55:59;;;;;;;;;;;;;;;19.30;37.76;100145.06;5055849;28;883;-54
2021/01/14 04:58:25;;;;;;;;;;;;;;;20.31;36.06;100141.44;5056195;28;787;-54
2021/01/14 05:00:50;;;;;;;;;;;;;;;20.82;34.60;100140.16;5055523;28;1962;-48
2021/01/14 05:03:22;;;;;;;;;;;;;;;20.22;35.94;100146.09;5057056;28;799;-54
2021/01/14 05:05:48;;;;;;;;;;;;;;;20.13;35.90;100140.50;5056139;28;799;-49
2021/01/14 05:08:14;;;;;;;;;;;;;;;19.34;37.42;100150.78;5045025;28;1022;-49
2021/01/14 05:10:40;;;;;;;;;;;;;;;19.93;36.44;100144.56;5057416;28;954;-56
2021/01/14 05:13:07;;;;;;;;;;;;;;;20.63;35.04;100145.06;5038510;28;821;-54
2021/01/14 05:15:32;;;;;;;;;;;;;;;20.14;36.02;100145.69;5056751;28;827;-52
2021/01/14 05:17:58;;;;;;;;;;;;;;;20.28;35.54;100155.88;5056705;28;1119;-50
2021/01/14 05:20:24;;;;;;;;;;;;;;;19.71;36.63;100154.38;5056010;28;1914;-48
2021/01/14 05:22:50;;;;;;;;;;;;;;;19.65;36.80;100155.63;5046264;28;1039;-49
2021/01/14 05:25:16;;;;;;;;;;;;;;;20.50;34.76;100158.63;5036608;28;787;-58
2021/01/14 05:27:41;;;;;;;;;;;;;;;20.45;34.60;100155.19;5036291;28;779;-56
2021/01/14 05:30:07;;;;;;;;;;;;;;;20.12;35.51;100159.00;5036644;28;803;-47
2021/01/14 05:32:36;;;;;;;;;;;;;;;19.88;35.80;100155.72;5036514;28;748;-49
2021/01/14 05:35:05;;;;;;;;;;;;;;;19.46;36.53;100151.09;5036256;28;486;-53
2021/01/14 05:37:33;;;;;;;;;;;;;;;19.87;35.87;100159.63;5036278;28;998;-52
2021/01/14 05:39:58;;;;;;;;;;;;;;;20.72;34.21;100157.00;5018726;28;1914;-58
2021/01/14 05:42:23;;;;;;;;;;;;;;;20.19;35.10;100153.06;5018883;28;748;-53
2021/01/14 05:44:49;;;;;;;;;;;;;;;20.17;35.49;100152.53;5036463;28;827;-56
2021/01/14 05:47:18;;;;;;;;;;;;;;;19.62;36.48;100148.00;5036249;28;791;-56
2021/01/14 05:49:53;;;;;;;;;;;;;;;19.67;36.44;100153.41;5036246;28;899;-49
2021/01/14 05:52:18;;;;;;;;;;;;;;;20.54;34.58;100153.31;5036194;28;947;-51
2021/01/14 05:54:44;;;;;;;;;;;;;;;20.25;34.96;100151.78;5018802;28;859;-53
2021/01/14 05:57:09;;;;;;;;;;;;;;;20.13;35.42;100151.53;5036516;28;844;-48
2021/01/14 05:59:34;;;;;;;;;;;;;;;19.87;36.04;100151.34;5018626;28;1902;-50
2021/01/14 06:02:00;;;;;;;;;;;;;;;19.85;36.21;100150.81;5018263;28;922;-53
2021/01/14 06:04:26;;;;;;;;;;;;;;;20.59;34.89;100149.56;5036395;28;875;-45
2021/01/14 06:06:52;;;;;;;;;;;;;;;20.38;35.07;100155.63;5042183;28;825;-47
2021/01/14 06:09:18;;;;;;;;;;;;;;;20.06;35.57;100149.19;5053100;28;833;-47
2021/01/14 06:11:44;;;;;;;;;;;;;;;19.92;35.87;100159.47;5055690;28;821;-53
2021/01/14 06:14:25;;;;;;;;;;;;;;;19.79;36.37;100161.97;5055648;28;752;-59
2021/01/14 06:16:50;;;;;;;;;;;;;;;20.63;34.54;100167.16;5055961;28;1175;-53
2021/01/14 06:19:16;;;;;;;;;;;;;;;20.43;34.66;100165.75;5055906;28;811;-60
2021/01/14 06:21:41;;;;;;;;;;;;;;;20.18;35.26;100168.78;5054369;28;1906;-55
2021/01/14 06:24:07;;;;;;;;;;;;;;;20.02;35.63;100175.81;5035888;28;1179;-59
2021/01/14 06:26:33;;;;;;;;;;;;;;;19.31;37.22;100168.75;5025487;28;896;-47
2021/01/14 06:28:58;;;;;;;;;;;;;;;20.21;35.59;100172.06;5041133;28;864;-54
2021/01/14 06:31:24;;;;;;;;;;;;;;;20.52;34.58;100184.00;5059801;28;819;-47
2021/01/14 06:33:49;;;;;;;;;;;;;;;20.16;35.43;100186.78;5059753;28;807;-55
2021/01/14 06:36:15;;;;;;;;;;;;;;;20.11;35.42;100184.16;5041326;28;784;-47
2021/01/14 06:38:45;;;;;;;;;;;;;;;19.40;36.96;100192.84;5041899;28;958;-49
2021/01/14 06:41:13;;;;;;;;;;;;;;;20.16;35.73;100184.03;5059399;28;1971;-59
2021/01/14 06:43:40;;;;;;;;;;;;;;;20.83;34.17;100187.94;5059035;28;709;-61
2021/01/14 06:46:05;;;;;;;;;;;;;;;20.40;34.94;100188.44;5059630;28;748;-53
2021/01/14 06:48:31;;;;;;;;;;;;;;;20.39;34.97;100198.69;5041647;28;833;-58
2021/01/14 06:50:59;;;;;;;;;;;;;;;19.92;35.81;100203.63;5041427;28;804;-56
2021/01/14 06:53:26;;;;;;;;;;;;;;;19.81;36.46;100194.75;5044210;28;978;-54
2021/01/14 06:55:52;;;;;;;;;;;;;;;20.67;34.76;100202.13;5039284;28;764;-54
2021/01/14 06:58:19;;;;;;;;;;;;;;;20.37;35.25;100202.88;5038608;28;760;-50
2021/01/14 07:00:48;;;;;;;;;;;;;;;20.22;35.33;100198.56;5039477;28;1887;-51
2021/01/14 07:03:16;;;;;;;;;;;;;;;19.75;36.15;100190.47;5021674;28;1386;-54
2021/01/14 07:05:58;;;;;;;;;;;;;;;19.77;36.21;100185.47;5038717;28;739;-52
2021/01/14 07:08:33;;;;;;;;;;;;;;;20.58;34.52;100181.09;5038804;28;947;-54
2021/01/14 07:11:04;;;;;;;;;;;;;;;20.37;34.87;100181.63;5039113;28;806;-52
2021/01/14 07:13:31;;;;;;;;;;;;;;;20.17;35.56;100183.75;5038662;28;767;-50
2021/01/14 07:15:56;;;;;;;;;;;;;;;19.87;35.89;100184.44;5039049;28;740;-55
2021/01/14 07:18:26;;;;;;;;;;;;;;;19.69;36.75;100184.25;5034435;28;1194;-65
2021/01/14 07:20:51;;;;;;;;;;;;;;;20.48;34.85;100195.97;5058511;28;1973;-65
2021/01/14 07:23:17;;;;;;;;;;;;;;;21.06;33.98;100194.22;5040685;28;1165;-65
2021/01/14 07:25:42;;;;;;;;;;;;;;;20.34;35.13;100194.09;5059026;28;859;-62
2021/01/14 07:28:08;;;;;;;;;;;;;;;20.42;34.92;100195.28;5058280;28;871;-61
2021/01/14 07:30:33;;;;;;;;;;;;;;;19.80;36.37;100191.19;5058696;28;803;-62
2021/01/14 07:33:04;;;;;;;;;;;;;;;19.18;37.42;100201.81;5040829;28;861;-55
2021/01/14 07:35:42;;;;;;;;;;;;;;;20.17;35.80;100188.44;5058293;28;815;-53
2021/01/14 07:38:11;;;;;;;;;;;;;;;20.81;34.29;100195.72;5045490;28;994;-62
2021/01/14 07:40:37;;;;;;;;;;;;;;;20.28;35.25;100189.00;5038510;28;1957;-54
2021/01/14 07:43:09;;;;;;;;;;;;;;;20.09;35.52;100186.41;5038052;28;772;-52
2021/01/14 07:45:37;;;;;;;;;;;;;;;19.59;36.58;100184.47;5038512;28;804;-60
2021/01/14 07:48:18;;;;;;;;;;;;;;;19.64;36.73;100181.59;5038565;28;969;-61
2021/01/14 07:50:56;;;;;;;;;;;;;;;20.50;34.90;100197.28;5038412;28;756;-59
2021/01/14 07:53:21;;;;;;;;;;;;;;;20.35;35.01;100194.91;5038409;28;963;-61
2021/01/14 07:55:47;;;;;;;;;;;;;;;20.21;35.65;100199.69;5037925;28;839;-59
2021/01/14 07:58:21;;;;;;;;;;;;;;;19.96;36.12;100208.25;5038139;28;820;-58
2021/01/14 08:01:00;;;;;;;;;;;;;;;19.54;36.71;100212.16;5038074;28;1973;-64
2021/01/14 08:03:41;;;;;;;;;;;;;;;20.27;35.31;100212.22;5037753;28;832;-54
2021/01/14 08:06:25;;;;;;;;;;;;;;;20.77;34.24;100206.59;5037958;28;819;-50
2021/01/14 08:08:56;;;;;;;;;;;;;;;20.16;35.34;100201.44;5037626;28;999;-56
2021/01/14 08:11:25;;;;;;;;;;;;;;;20.07;35.65;100214.31;5037830;28;756;-53
2021/01/14 08:14:00;;;;;;;;;;;;;;;19.70;36.38;100209.88;5037742;28;903;-54
2021/01/14 08:16:35;;;;;;;;;;;;;;;20.41;34.97;100210.25;5037986;28;799;-50
2021/01/14 08:19:18;;;;;;;;;;;;;;;20.56;34.63;100210.97;5055889;28;1100;-52
2021/01/14 08:21:44;;;;;;;;;;;;;;;20.35;35.14;100214.22;5056130;28;1901;-53
2021/01/14 08:24:11;;;;;;;;;;;;;;;20.22;35.21;100209.59;5037611;28;1214;-57
2021/01/14 08:27:11;;;;;;;;;;;;;;;19.59;36.59;100207.34;5037169;28;812;-49
2021/01/14 08:29:44;;;;;;;;;;;;;;;19.99;36.03;100212.28;4976414;28;1157;-53
2021/01/14 08:32:28;;;;;;;;;;;;;;;20.60;34.58;100206.47;5013462;28;991;-52
2021/01/14 08:34:54;;;;;;;;;;;;;;;20.58;34.40;100217.00;5036974;28;852;-48
2021/01/14 08:37:28;;;;;;;;;;;;;;;20.49;34.82;100217.75;5037160;28;943;-47
2021/01/14 08:39:53;;;;;;;;;;;;;;;20.00;35.52;100216.69;5037328;28;1987;-48
2021/01/14 08:42:19;;;;;;;;;;;;;;;19.48;36.58;100222.47;5019190;28;811;-53
2021/01/14 08:44:44;;;;;;;;;;;;;;;19.98;35.71;100214.25;5019621;28;860;-54
2021/01/14 08:47:09;;;;;;;;;;;;;;;20.66;34.56;100211.56;5020156;28;782;-52
2021/01/14 08:49:37;;;;;;;;;;;;;;;21.14;33.65;100209.22;5018350;28;795;-50
2021/01/14 08:52:02;;;;;;;;;;;;;;;21.02;33.57;100215.34;5019366;28;952;-64
2021/01/14 08:54:29;;;;;;;;;;;;;;;20.60;34.36;100206.47;5037562;28;776;-66
2021/01/14 08:57:03;;;;;;;;;;;;;;;20.38;34.82;100212.78;5036563;28;788;-55
2021/01/14 08:59:29;;;;;;;;;;;;;;;19.74;36.27;100203.44;5037075;28;842;-65
2021/01/14 09:01:57;;;;;;;;;;;;;;;19.47;36.84;100202.34;5036860;28;1902;-53
2021/01/14 09:04:25;;;;;;;;;;;;;;;20.44;34.69;100194.97;5036800;28;792;-55
2021/01/14 09:06:50;;;;;;;;;;;;;;;20.47;34.81;100208.16;5036743;28;1003;-58
2021/01/14 09:09:17;;;;;;;;;;;;;;;20.49;34.51;100208.66;5036843;28;803;-64
2021/01/14 09:11:42;;;;;;;;;;;;;;;19.88;35.70;100200.69;5036838;28;800;-55
2021/01/14 09:14:09;;;;;;;;;;;;;;;19.47;36.51;100205.13;5036842;28;740;-51
2021/01/14 09:16:34;;;;;;;;;;;;;;;20.46;34.82;100203.75;5036621;28;823;-51
2021/01/14 09:19:00;;;;;;;;;;;;;;;20.93;33.77;100201.50;5054859;28;1096;-55
2021/01/14 09:21:26;;;;;;;;;;;;;;;20.37;35.04;100184.38;5056612;28;1902;-59
2021/01/14 09:23:52;;;;;;;;;;;;;;;20.37;35.05;100189.06;5037307;28;1141;-64
2021/01/14 09:26:20;;;;;;;;;;;;;;;19.88;35.54;100175.88;5036389;28;791;-65
2021/01/14 09:28:52;;;;;;;;;;;;;;;19.52;36.42;100178.53;5036621;28;747;-48
2021/01/14 09:31:18;;;;;;;;;;;;;;;20.23;35.28;100176.16;5036338;28;807;-58
2021/01/14 09:33:44;;;;;;;;;;;;;;;20.72;34.38;100184.63;5018619;28;761;-58
2021/01/14 09:36:10;;;;;;;;;;;;;;;20.34;34.87;100184.97;5036903;28;787;-53
2021/01/14 09:38:37;;;;;;;;;;;;;;;20.27;35.18;100174.41;5036178;28;947;-53
2021/01/14 09:41:02;;;;;;;;;;;;;;;19.54;36.36;100170.78;5036065;28;1985;-61
2021/01/14 09:43:27;;;;;;;;;;;;;;;19.88;35.92;100169.50;5018720;28;712;-63
2021/01/14 09:45:53;;;;;;;;;;;;;;;20.59;34.25;100169.72;5018728;28;748;-54
2021/01/14 09:48:21;;;;;;;;;;;;;;;20.24;35.08;100161.19;5018599;28;927;-51
2021/01/14 09:50:47;;;;;;;;;;;;;;;20.32;34.82;100165.97;5036590;28;780;-48
2021/01/14 09:53:13;;;;;;;;;;;;;;;19.94;35.56;100154.47;5035938;28;979;-50
2021/01/14 09:55:38;;;;;;;;;;;;;;;19.46;36.47;100158.50;5036065;28;804;-47
2021/01/14 09:58:04;;;;;;;;;;;;;;;20.13;35.49;100144.09;5018444;28;737;-49
2021/01/14 10:00:29;;;;;;;;;;;;;;;20.79;34.00;100137.19;5020839;28;1964;-52
2021/01/14 10:03:00;;;;;;;;;;;;;;;20.51;34.36;100127.13;5040239;28;1518;-57
2021/01/14 10:05:25;;;;;;;;;;;;;;;20.29;34.73;100129.91;5060385;28;740;-55
2021/01/14 10:07:51;;;;;;;;;;;;;;;20.03;35.16;100125.00;5049901;28;1034;-60
2021/01/14 10:10:19;;;;;;;;;;;;;;;19.47;36.60;100130.66;5039981;28;772;-54
2021/01/14 10:12:45;;;;;;;;;;;;;;;20.07;35.44;100134.28;5039699;28;892;-60
2021/01/14 10:15:11;;;;;;;;;;;;;;;20.68;34.17;100118.13;5042247;28;1431;-69
2021/01/14 10:17:38;;;;;;;;;;;;;;;20.41;34.80;100115.50;5059610;28;1183;-60
2021/01/14 10:20:04;;;;;;;;;;;;;;;20.14;34.90;100111.78;5059733;28;1978;-60
2021/01/14 10:22:29;;;;;;;;;;;;;;;19.69;35.94;100107.00;5052176;28;1139;-61
2021/01/14 10:25:06;;;;;;;;;;;;;;;19.46;36.64;100109.72;5039838;28;764;-62
2021/01/14 10:27:31;;;;;;;;;;;;;;;20.44;34.64;100110.19;5039769;28;799;-62
2021/01/14 10:29:59;;;;;;;;;;;;;;;20.77;33.92;100098.84;5040066;28;812;-57
2021/01/14 10:32:24;;;;;;;;;;;;;;;20.35;34.62;100090.78;5022006;28;749;-53
2021/01/14 10:34:50;;;;;;;;;;;;;;;20.18;34.84;100085.97;5041948;28;856;-54
2021/01/14 10:37:25;;;;;;;;;;;;;;;19.84;35.63;100081.03;5053736;28;941;-55
2021/01/14 10:39:52;;;;;;;;;;;;;;;20.09;35.53;100081.53;5043797;28;1906;-57
2021/01/14 10:42:27;;;;;;;;;;;;;;;20.73;34.25;100080.47;5060249;28;800;-53
2021/01/14 10:44:53;;;;;;;;;;;;;;;20.29;34.90;100071.94;5059497;28;816;-57
2021/01/14 10:47:19;;;;;;;;;;;;;;;20.12;35.02;100070.69;5059023;28;808;-55
2021/01/14 10:49:45;;;;;;;;;;;;;;;19.52;36.18;100062.72;5041656;28;783;-56
2021/01/14 10:52:10;;;;;;;;;;;;;;;19.90;35.91;100063.22;5054255;28;1013;-57
2021/01/14 10:54:35;;;;;;;;;;;;;;;20.60;34.62;100063.63;5039080;28;792;-57
2021/01/14 10:57:01;;;;;;;;;;;;;;;20.55;34.38;100058.25;5039357;28;807;-58
2021/01/14 10:59:26;;;;;;;;;;;;;;;20.48;34.41;100049.59;5021654;28;626;-50
2021/01/14 11:02:04;;;;;;;;;;;;;;;19.98;35.35;100047.88;5038821;28;1973;-57
2021/01/14 11:04:30;;;;;;;;;;;;;;;19.27;37.10;100034.63;5039334;28;732;-54
2021/01/14 11:06:55;;;;;;;;;;;;;;;20.30;34.88;100029.38;5038684;28;1006;-60
2021/01/14 11:09:21;;;;;;;;;;;;;;;20.71;33.96;100028.28;5038635;28;836;-60
2021/01/14 11:11:46;;;;;;;;;;;;;;;20.35;35.01;100018.19;5038467;28;856;-55
2021/01/14 11:14:15;;;;;;;;;;;;;;;20.21;34.86;100017.47;5038976;28;816;-63
2021/01/14 11:16:41;;;;;;;;;;;;;;;19.56;36.22;100025.13;5038672;28;740;-61
2021/01/14 11:19:06;;;;;;;;;;;;;;;19.99;35.71;100010.84;5058116;28;1191;-51
2021/01/14 11:21:33;;;;;;;;;;;;;;;20.67;34.35;100007.94;5058171;28;1910;-58
2021/01/14 11:23:58;;;;;;;;;;;;;;;20.28;34.72;99998.50;5038319;28;1112;-48
2021/01/14 11:26:24;;;;;;;;;;;;;;;20.18;34.88;100003.16;5039023;28;811;-58
2021/01/14 11:28:49;;;;;;;;;;;;;;;19.61;36.21;99998.22;5038793;28;772;-64
2021/01/14 11:31:16;;;;;;;;;;;;;;;19.77;36.14;100003.41;5038362;28;835;-53
2021/01/14 11:33:41;;;;;;;;;;;;;;;20.57;34.60;99994.41;5038791;28;847;-62
2021/01/14 11:36:10;;;;;;;;;;;;;;;20.61;34.11;99987.13;5038658;28;824;-65
2021/01/14 11:38:35;;;;;;;;;;;;;;;20.38;34.63;99989.13;5038036;28;955;-51
2021/01/14 11:41:01;;;;;;;;;;;;;;;19.95;35.56;99976.75;5038367;28;1914;-58
2021/01/14 11:43:26;;;;;;;;;;;;;;;19.45;36.62;99978.50;5038885;28;758;-54
2021/01/14 11:45:52;;;;;;;;;;;;;;;20.20;35.13;99972.47;5038171;28;819;-60
2021/01/14 11:48:18;;;;;;;;;;;;;;;20.77;33.86;99968.19;5038415;28;788;-49
2021/01/14 11:50:43;;;;;;;;;;;;;;;20.30;34.73;99972.22;5038411;28;800;-59
2021/01/14 11:53:09;;;;;;;;;;;;;;;20.25;34.77;99966.03;5037531;28;967;-51
2021/01/14 11:55:34;;;;;;;;;;;;;;;19.52;36.37;99964.28;5038304;28;817;-50
2021/01/14 11:58:00;;;;;;;;;;;;;;;19.21;36.97;99954.00;5038248;28;759;-54
2021/01/14 12:00:25;;;;;;;;;;;;;;;20.02;35.46;99954.22;5037558;28;1969;-52
2021/01/14 12:02:50;;;;;;;;;;;;;;;20.64;34.11;99947.81;5038735;28;818;-59
2021/01/14 12:05:16;;;;;;;;;;;;;;;20.55;34.34;99946.97;5038030;28;832;-50
2021/01/14 12:07:41;;;;;;;;;;;;;;;20.40;34.52;99943.50;5037251;28;1025;-58
2021/01/14 12:10:07;;;;;;;;;;;;;;;20.05;35.07;99943.38;5038061;28;816;-52
2021/01/14 12:12:33;;;;;;;;;;;;;;;19.51;36.36;99932.31;5037941;28;862;-58
2021/01/14 12:14:58;;;;;;;;;;;;;;;19.33;36.81;99934.13;5037315;28;784;-52
2021/01/14 12:17:24;;;;;;;;;;;;;;;20.24;34.93;99928.50;5043239;28;1215;-53
2021/01/14 12:19:50;;;;;;;;;;;;;;;20.89;33.65;99926.91;5057563;28;1910;-53
2021/01/14 12:22:15;;;;;;;;;;;;;;;20.30;34.90;99927.22;5051353;28;1141;-64
2021/01/14 12:24:40;;;;;;;;;;;;;;;20.25;34.84;99919.91;5036788;28;875;-54
2021/01/14 12:27:06;;;;;;;;;;;;;;;19.78;35.63;99922.25;5037819;28;788;-61
2021/01/14 12:29:31;;;;;;;;;;;;;;;19.77;35.93;99920.66;5037059;28;1018;-58
2021/01/14 12:31:57;;;;;;;;;;;;;;;20.54;34.22;99917.72;5037650;28;828;-49
2021/01/14 12:34:23;;;;;;;;;;;;;;;20.84;33.64;99904.97;5037447;28;745;-59
2021/01/14 12:36:48;;;;;;;;;;;;;;;20.32;34.58;99908.41;5037101;28;1009;-58
2021/01/14 12:39:13;;;;;;;;;;;;;;;19.99;35.17;99900.47;5037359;28;905;-48
2021/01/14 12:41:39;;;;;;;;;;;;;;;19.45;36.29;99893.03;5037580;28;1979;-50
2021/01/14 12:44:05;;;;;;;;;;;;;;;19.98;35.32;99893.34;5037304;28;807;-50
2021/01/14 12:46:37;;;;;;;;;;;;;;;20.61;34.30;99894.03;5037035;28;824;-54
2021/01/14 12:49:03;;;;;;;;;;;;;;;20.40;34.54;99893.81;5036909;28;815;-59
2021/01/14 12:51:28;;;;;;;;;;;;;;;20.37;34.50;99893.63;5037258;28;862;-49
2021/01/14 12:53:54;;;;;;;;;;;;;;;19.80;35.75;99887.75;5036519;28;951;-60
2021/01/14 12:56:19;;;;;;;;;;;;;;;19.07;36.91;99893.41;5037263;28;755;-59